Latest Weather Observations for Kingscote

IDS60801

Issued at 2:35 pm CDT Monday 24 November 2014 (issued every 30 minutes, with the page automatically refreshed every 10 minutes)

About weather observations | Map of weather stations | Latest weather observations for SA | Other Formats
Station Details ID: 022841 Name: KINGSCOTE AERO Lat: -35.71 Lon: 137.52 Height: 6.23 m
Data from the previous 72 hours. | See also: Recent months at Kingscote
Date/Time
CDT
Temp
°C
App
Temp
°C
Dew
Point
Rel
Hum
%
Delta-T
°C
Wind Press
QNH
hPa
Press
MSL
hPa
Rain
since 9 am
mm
Dir
 
Spd
km/h
Gust
km/h
Spd
kts
Gust
kts
24/02:32pm 20.1 13.3 5.0 37 7.4 SW 30 48 16 26 1014.6 1014.6 0.2
24/02:30pm 19.8 12.5 4.3 36 7.4 SW 32 48 17 26 1014.8 1014.8 0.2
24/02:00pm 20.6 13.1 4.6 35 7.8 SW 33 46 18 25 1014.7 1014.7 0.2
24/01:30pm 21.6 14.1 4.7 33 8.3 SW 33 56 18 30 1014.6 1014.6 0.2
24/01:01pm 21.1 13.7 5.1 35 7.9 SSW 33 52 18 28 1014.6 1014.6 0.2
24/01:00pm 20.8 12.8 4.0 33 8.1 SSW 35 52 19 28 1014.7 1014.7 0.2
24/12:30pm 20.3 12.5 6.6 41 6.9 SSW 37 52 20 28 1014.5 1014.5 0.2
24/12:23pm 20.4 13.5 7.1 42 6.8 SW 33 52 18 28 1014.4 1014.4 0.2
24/12:00pm 19.2 11.6 7.6 47 5.9 SSW 37 50 20 27 1014.3 1014.3 0.2
24/11:47am 20.6 12.7 9.2 48 6.0 SSW 41 48 22 26 1014.3 1014.3 0.2
24/11:30am 21.1 13.5 5.9 37 7.6 WSW 35 48 19 26 1014.1 1014.1 0.2
24/11:00am 18.8 12.8 8.5 51 5.3 SW 30 39 16 21 1014.2 1014.2 0.2
24/10:30am 20.0 16.4 11.7 59 4.6 SSW 22 30 12 16 1013.9 1013.9 0.2
24/10:00am 18.0 12.8 10.4 61 4.1 SSW 28 41 15 22 1013.8 1013.8 0.2
24/09:30am 18.7 12.9 9.5 55 4.9 SSW 30 46 16 25 1013.4 1013.4 0.2
24/09:00am 18.0 11.8 9.4 57 4.5 SW 32 41 17 22 1013.0 1013.0 0.0
24/08:30am 17.6 13.4 12.5 72 2.8 SW 26 37 14 20 1012.4 1012.4 0.0
24/08:21am 18.0 13.7 13.1 73 2.8 SW 28 33 15 18 1012.2 1012.2 0.0
24/08:00am 17.6 17.1 13.9 79 2.1 SSW 9 13 5 7 1012.0 1012.0 0.0
24/07:30am 16.1 15.2 13.6 85 1.4 SW 11 13 6 7 1011.7 1011.7 0.0
24/07:00am 13.6 12.4 12.7 94 0.5 WSW 11 13 6 7 1011.4 1011.4 0.0
24/06:30am 12.8 12.0 11.7 93 0.6 WSW 7 9 4 5 1011.2 1011.2 0.0
24/06:00am 12.8 11.5 11.4 91 0.7 SW 9 11 5 6 1010.7 1010.7 0.0
24/05:30am 13.8 12.3 12.0 89 1.0 SSW 11 13 6 7 1010.2 1010.2 0.0
24/05:00am 14.3 12.6 12.3 88 1.1 SSW 13 19 7 10 1009.7 1009.7 0.0
24/04:30am 14.0 12.2 12.0 88 1.1 SW 13 17 7 9 1009.8 1009.8 0.0
24/04:00am 13.7 12.5 11.6 87 1.1 SW 9 15 5 8 1009.5 1009.5 0.0
24/03:30am 14.4 12.7 12.3 87 1.1 S 13 17 7 9 1009.6 1009.6 0.0
24/03:00am 14.3 12.5 12.2 87 1.1 S 13 20 7 11 1009.8 1009.8 0.0
24/02:30am 14.2 12.0 12.2 88 1.1 S 15 17 8 9 1009.8 1009.8 0.0
24/02:00am 14.7 12.3 12.6 87 1.1 S 17 20 9 11 1009.8 1009.8 0.0
24/01:30am 15.0 13.3 12.3 84 1.5 SSW 13 15 7 8 1010.4 1010.4 0.0
24/01:00am 15.2 12.6 12.1 82 1.7 SSW 17 20 9 11 1009.9 1009.9 0.0
24/12:30am 16.1 14.4 12.5 79 2.0 SSW 13 19 7 10 1010.4 1010.4 0.0
24/12:00am 16.4 15.2 12.8 79 2.0 SSE 11 15 6 8 1010.2 1010.2 0.0
 
Date/Time
CDT
Temp
°C
App
Temp
°C
Dew
Point
Rel
Hum
%
Delta-T
°C
Wind Press
QNH
hPa
Press
MSL
hPa
Rain
since 9 am
mm
Dir
 
Spd
km/h
Gust
km/h
Spd
kts
Gust
kts
23/11:30pm 16.8 14.7 12.5 76 2.4 S 15 20 8 11 1010.3 1010.3 0.0
23/11:00pm 16.8 15.5 12.5 76 2.4 S 11 15 6 8 1010.8 1010.8 0.0
23/10:30pm 17.1 14.6 12.4 74 2.6 SSE 17 20 9 11 1010.7 1010.7 0.0
23/10:00pm 17.3 14.9 12.6 74 2.6 SSE 17 20 9 11 1010.5 1010.5 0.0
23/09:30pm 17.5 15.3 12.0 70 3.0 SE 15 22 8 12 1010.9 1010.9 0.0
23/09:00pm 17.8 15.1 11.8 68 3.3 SSE 17 20 9 11 1011.0 1011.0 0.0
23/08:30pm 18.0 15.3 11.6 66 3.5 SSE 17 26 9 14 1010.9 1010.9 0.0
23/08:00pm 18.7 14.9 12.5 67 3.5 S 24 30 13 16 1010.6 1010.6 0.0
23/07:30pm 19.9 16.1 13.6 67 3.6 S 26 33 14 18 1010.5 1010.5 0.0
23/07:00pm 21.0 17.8 14.2 65 4.0 SSE 24 32 13 17 1010.0 1010.0 0.0
23/06:30pm 22.9 19.7 14.2 58 5.1 S 24 32 13 17 1009.5 1009.5 0.0
23/06:00pm 22.8 20.1 13.0 54 5.6 SE 19 24 10 13 1009.8 1009.8 0.0
23/05:30pm 25.4 21.9 13.3 47 7.1 S 24 30 13 16 1009.9 1009.9 0.0
23/05:00pm 24.6 22.3 10.5 41 7.8 N 13 20 7 11 1010.2 1010.2 0.0
23/04:30pm 25.6 21.0 6.3 29 10.0 WNW 20 26 11 14 1010.3 1010.3 0.0
23/04:00pm 24.7 20.5 7.4 33 9.1 WNW 19 26 10 14 1010.5 1010.5 0.0
23/03:30pm 23.6 17.7 7.3 35 8.5 NNW 28 35 15 19 1011.2 1011.2 0.0
23/03:00pm 24.2 20.0 11.2 44 7.3 N 24 35 13 19 1010.9 1010.9 0.0
23/02:30pm 27.0 24.4 4.1 23 11.5 SSW 7 11 4 6 1010.2 1010.2 0.0
23/02:00pm 26.5 22.5 4.9 25 11.0 SW 15 24 8 13 1010.7 1010.7 0.0
23/01:30pm 26.0 21.2 4.5 25 10.8 W 19 26 10 14 1011.5 1011.5 0.0
23/01:00pm 24.5 21.4 7.2 33 9.1 NW 13 24 7 13 1012.2 1012.2 0.0
23/12:30pm 23.8 20.6 9.8 41 7.6 NW 17 26 9 14 1013.0 1013.0 0.0
23/12:00pm 22.2 18.8 10.4 47 6.5 NNW 19 30 10 16 1013.0 1013.0 0.0
23/11:30am 22.5 19.3 10.0 45 6.8 NNW 17 26 9 14 1012.7 1012.7 0.0
23/11:00am 20.9 17.7 11.3 54 5.3 N 19 28 10 15 1012.7 1012.7 0.0
23/10:30am 21.2 18.8 11.5 54 5.4 N 15 22 8 12 1012.6 1012.6 0.0
23/10:00am 19.8 18.9 10.5 55 5.0 SW 6 9 3 5 1012.3 1012.3 0.0
23/09:30am 19.9 17.9 11.4 58 4.7 NE 13 20 7 11 1012.7 1012.7 0.0
23/09:00am 18.3 17.4 11.4 64 3.8 N 7 13 4 7 1012.6 1012.6 0.0
23/08:30am 16.4 16.8 11.1 71 2.8 CALM 0 0 0 0 1012.6 1012.6 0.0
23/08:00am 13.6 14.0 11.3 86 1.2 CALM 0 0 0 0 1012.8 1012.8 0.0
23/07:30am 11.0 11.1 10.2 95 0.4 CALM 0 0 0 0 1012.7 1012.7 0.0
23/07:00am 8.7 8.3 8.3 97 0.2 CALM 0 0 0 0 1012.6 1012.6 0.0
23/06:30am 6.9 6.1 6.5 97 0.2 CALM 0 0 0 0 1012.6 1012.6 0.0
23/06:27am 6.6 5.7 6.2 97 0.2 CALM 0 0 0 0 1012.6 1012.6 0.0
23/06:00am 5.5 4.4 4.9 96 0.3 CALM 0 0 0 0 1012.3 1012.3 0.0
23/05:30am 6.7 5.8 6.1 96 0.3 CALM 0 0 0 0 1012.1 1012.1 0.0
23/05:00am 6.3 5.3 5.6 95 0.3 CALM 0 0 0 0 1012.2 1012.2 0.0
23/04:30am 7.2 6.4 6.3 94 0.4 CALM 0 0 0 0 1012.3 1012.3 0.0
23/04:26am 7.3 6.5 6.6 95 0.3 CALM 0 0 0 0 1012.3 1012.3 0.0
23/04:23am 7.1 6.2 6.2 94 0.4 CALM 0 0 0 0 1012.3 1012.3 0.0
23/04:04am 7.6 6.8 6.7 94 0.4 CALM 0 0 0 0 1012.1 1012.1 0.0
23/04:00am 7.8 7.1 6.9 94 0.4 CALM 0 0 0 0 1012.1 1012.1 0.0
23/03:30am 7.9 7.2 7.0 94 0.4 CALM 0 0 0 0 1012.1 1012.1 0.0
23/03:00am 8.6 8.1 7.8 95 0.4 CALM 0 0 0 0 1012.1 1012.1 0.0
23/02:51am 8.5 8.0 7.7 95 0.4 CALM 0 0 0 0 1012.1 1012.1 0.0
23/02:30am 8.3 7.7 7.4 94 0.4 CALM 0 0 0 0 1012.2 1012.2 0.0
23/02:10am 8.8 8.3 7.9 94 0.4 CALM 0 0 0 0 1012.3 1012.3 0.0
23/02:00am 8.7 8.1 7.6 93 0.5 CALM 0 0 0 0 1012.3 1012.3 0.0
23/01:30am 9.6 9.3 8.5 93 0.5 CALM 0 0 0 0 1012.4 1012.4 0.0
23/01:00am 10.5 10.4 9.3 92 0.6 CALM 0 0 0 0 1012.7 1012.7 0.0
23/12:30am 10.9 10.8 9.3 90 0.8 CALM 0 0 0 0 1012.9 1012.9 0.0
23/12:00am 11.3 11.1 9.0 86 1.1 CALM 0 0 0 0 1012.8 1012.8 0.0
 
Date/Time
CDT
Temp
°C
App
Temp
°C
Dew
Point
Rel
Hum
%
Delta-T
°C
Wind Press
QNH
hPa
Press
MSL
hPa
Rain
since 9 am
mm
Dir
 
Spd
km/h
Gust
km/h
Spd
kts
Gust
kts
22/11:30pm 12.8 13.1 10.9 88 1.0 CALM 0 0 0 0 1012.9 1012.9 0.0
22/11:00pm 13.0 13.2 10.7 86 1.2 CALM 0 0 0 0 1012.9 1012.9 0.0
22/10:30pm 13.4 12.6 11.1 86 1.2 SW 6 7 3 4 1012.8 1012.8 0.0
22/10:00pm 13.8 12.5 11.1 84 1.4 SW 9 11 5 6 1012.5 1012.5 0.0
22/09:30pm 14.8 13.5 11.4 80 1.8 SSW 9 11 5 6 1012.2 1012.2 0.0
22/09:00pm 16.0 13.7 11.8 76 2.3 SW 15 20 8 11 1011.8 1011.8 0.0
22/08:30pm 16.8 13.6 11.3 70 3.0 SSW 19 24 10 13 1011.4 1011.4 0.0
22/08:00pm 17.7 13.0 10.8 64 3.7 SSW 26 33 14 18 1010.4 1010.4 0.0
22/07:30pm 19.1 13.1 10.9 59 4.5 SSW 33 48 18 26 1009.5 1009.5 0.0
22/07:00pm 20.2 14.9 11.4 57 4.8 SSW 30 43 16 23 1009.0 1009.0 0.0
22/06:30pm 21.6 16.6 11.0 51 5.9 S 28 39 15 21 1008.6 1008.6 0.0
22/06:00pm 22.2 17.0 11.6 51 5.9 SSW 30 41 16 22 1008.2 1008.2 0.0
22/05:30pm 23.6 18.7 12.6 50 6.3 S 30 39 16 21 1007.9 1007.9 0.0
22/05:00pm 24.8 20.9 14.3 52 6.2 S 28 35 15 19 1007.4 1007.4 0.0
22/04:30pm 24.4 21.2 15.3 57 5.5 S 26 39 14 21 1007.2 1007.2 0.0
22/04:00pm 24.0 21.1 15.0 57 5.4 S 24 33 13 18 1007.2 1007.2 0.0
22/03:30pm 24.4 20.8 14.2 53 6.0 S 26 32 14 17 1007.0 1007.0 0.0
22/03:00pm 26.8 22.5 10.9 37 9.0 WNW 24 35 13 19 1006.6 1006.6 0.0
22/02:30pm 28.2 22.8 10.9 34 9.9 WNW 30 39 16 21 1006.7 1006.7 0.0
22/02:00pm 27.5 22.7 11.5 37 9.2 WNW 28 41 15 22 1007.0 1007.0 0.0
22/01:30pm 27.3 23.0 12.1 39 8.8 W 26 35 14 19 1006.5 1006.5 0.0
22/01:00pm 26.4 22.7 12.8 43 7.9 WNW 24 35 13 19 1006.8 1006.8 0.0
22/12:30pm 26.4 23.4 12.5 42 8.1 NW 20 30 11 16 1005.9 1005.9 0.0
22/12:00pm 26.1 22.9 14.2 48 7.1 NNW 24 41 13 22 1006.1 1006.1 0.0
22/11:30am 26.1 21.4 13.2 44 7.6 NNW 30 41 16 22 1006.4 1006.4 0.0
22/11:00am 27.0 22.1 12.6 41 8.4 NW 30 41 16 22 1006.3 1006.3 0.0
22/10:30am 26.7 22.8 12.0 40 8.5 NW 24 37 13 20 1006.2 1006.2 0.0
22/10:00am 25.4 21.1 11.9 43 7.7 NNW 26 33 14 18 1006.1 1006.1 0.0
22/09:30am 24.4 20.0 11.7 45 7.2 NNW 26 37 14 20 1006.3 1006.3 0.0
22/09:00am 23.8 20.2 13.1 51 6.2 NNW 24 33 13 18 1006.3 1006.3 0.0
22/08:30am 22.9 19.2 12.8 53 5.8 NNW 24 30 13 16 1005.9 1005.9 0.0
22/08:00am 22.0 19.6 12.8 56 5.2 N 17 24 9 13 1006.0 1006.0 0.0
22/07:30am 19.4 18.1 13.8 70 3.2 N 13 15 7 8 1006.3 1006.3 0.0
22/07:00am 16.6 16.7 13.9 84 1.5 NNW 6 11 3 6 1006.2 1006.2 0.0
22/06:30am 16.5 15.7 13.0 80 2.0 N 9 15 5 8 1006.1 1006.1 0.0
22/06:00am 16.6 16.1 12.6 77 2.2 E 7 9 4 5 1005.6 1005.6 0.0
22/05:30am 17.0 16.6 12.3 74 2.6 ESE 6 9 3 5 1005.9 1005.9 0.0
22/05:00am 17.8 17.3 12.5 71 2.9 N 7 9 4 5 1006.3 1006.3 0.0
22/04:30am 17.6 16.8 11.6 68 3.3 E 7 11 4 6 1005.6 1005.6 0.0
22/04:00am 17.9 17.0 11.5 66 3.5 SSW 7 11 4 6 1006.4 1006.4 0.0
22/03:30am 19.0 15.6 11.3 61 4.2 S 20 28 11 15 1006.5 1006.5 0.0
22/03:00am 20.4 16.5 9.6 50 5.8 SSE 20 28 11 15 1006.6 1006.6 0.0
22/02:30am 18.2 15.7 11.0 63 3.9 S 15 20 8 11 1005.9 1005.9 0.0
22/02:00am 16.0 15.0 12.2 78 2.1 SSW 9 13 5 7 1005.6 1005.6 0.0
22/01:30am 17.1 16.1 12.2 73 2.7 NE 9 13 5 7 1005.3 1005.3 0.0
22/01:00am 16.3 15.8 12.8 80 1.9 N 7 9 4 5 1005.7 1005.7 0.0
22/12:30am 16.3 14.5 12.1 76 2.3 NE 13 17 7 9 1005.9 1005.9 0.0
22/12:00am 16.0 15.2 12.9 82 1.7 NNE 9 13 5 7 1007.1 1007.1 0.0
 
Date/Time
CDT
Temp
°C
App
Temp
°C
Dew
Point
Rel
Hum
%
Delta-T
°C
Wind Press
QNH
hPa
Press
MSL
hPa
Rain
since 9 am
mm
Dir
 
Spd
km/h
Gust
km/h
Spd
kts
Gust
kts
21/11:30pm 14.4 15.0 11.9 85 1.4 CALM 0 0 0 0 1007.8 1007.8 0.0
21/11:00pm 15.6 16.1 12.7 83 1.6 N 2 6 1 3 1008.5 1008.5 0.0
21/10:30pm 16.4 16.0 12.9 80 1.9 NNE 7 9 4 5 1009.0 1009.0 0.0
21/10:00pm 16.5 15.9 12.3 76 2.3 NNE 7 9 4 5 1009.1 1009.1 0.0
21/09:30pm 16.6 15.4 12.8 78 2.1 ENE 11 15 6 8 1009.3 1009.3 0.0
21/09:00pm 16.6 15.5 13.1 80 2.0 NE 11 13 6 7 1009.5 1009.5 0.0
21/08:30pm 17.2 15.8 13.5 79 2.1 NE 13 15 7 8 1009.6 1009.6 0.0
21/08:00pm 18.0 16.6 13.3 74 2.7 NE 13 17 7 9 1009.9 1009.9 0.0
21/07:30pm 18.9 16.7 13.3 70 3.2 NE 17 20 9 11 1010.0 1010.0 0.0
21/07:00pm 20.0 17.2 12.7 63 4.1 NE 19 24 10 13 1009.8 1009.8 0.0
21/06:30pm 22.3 20.2 11.1 49 6.2 N 13 20 7 11 1009.7 1009.7 0.0
21/06:00pm 22.0 20.8 11.7 52 5.8 N 9 13 5 7 1009.9 1009.9 0.0
21/05:30pm 21.1 19.5 11.7 55 5.2 NW 11 17 6 9 1010.2 1010.2 0.0
21/05:00pm 20.4 18.5 11.9 58 4.7 NNW 13 19 7 10 1010.3 1010.3 0.0
21/04:30pm 20.6 17.7 11.0 54 5.3 NNW 17 24 9 13 1010.2 1010.2 0.0
21/04:00pm 21.6 18.9 11.6 53 5.6 NNW 17 24 9 13 1010.7 1010.7 0.0
21/03:30pm 20.8 17.4 11.4 55 5.2 NNW 20 28 11 15 1011.0 1011.0 0.0
21/03:00pm 20.7 17.5 11.1 54 5.3 N 19 32 10 17 1011.3 1011.3 0.0

Other Formats:

Comma delimited format used in spreadsheet applications
http://www.bom.gov.au/fwo/IDS60801/IDS60801.95807.axf

JavaScript Object Notation format (JSON) in row-major order
http://www.bom.gov.au/fwo/IDS60801/IDS60801.95807.json